Terminal Aerodrome Forecast
Issued by NWS Twin Cities, MN

Home | Current Version | Previous Version | Text Only | Print | Product List | Glossary On
Versions: 1 2 3 4 5 6 7 8 9 10 11 12 13
000
FTUS43 KMPX 161200 AAA
TAFEAU
TAF AMD
KEAU 161219Z 1612/1712 24003KT 5SM BR SKC
      TEMPO 1612/1614 2SM BR FEW007
     FM161400 24008KT P6SM FEW050
     FM170000 21003KT P6SM SKC
     FM170800 00000KT 3SM BR FEW006=

USA.gov is the U.S. government's official web portal to all federal, state and local government web resources and services.